Time;durP1;ratioP1;P1;durP2;ratioP2;P2;SDS_P1;SDS_P2;PMS_P1;PMS_P2;Temp;Humidity;BMP_temperature;BMP_pressure;BME280_temperature;BME280_humidity;BME280_pressure;Samples;Min_cycle;Max_cycle;Signal;HPM_P1;HPM_P2
2023/05/15 00:00:07;;;;;;;5.97;5.37;;;;;;;12.65;80.80;98287.81;4986104;28;103129;-68
2023/05/15 00:02:39;;;;;;;5.10;4.70;;;;;;;12.64;81.11;98278.16;4991381;28;104512;-68
2023/05/15 00:05:08;;;;;;;5.60;5.10;;;;;;;12.61;81.65;98281.09;4987172;28;104608;-68
2023/05/15 00:07:38;;;;;;;5.40;4.90;;;;;;;12.64;81.35;98270.22;5001796;28;103073;-69
2023/05/15 00:10:07;;;;;;;5.40;4.47;;;;;;;12.67;81.01;98266.47;4989903;28;102666;-69
2023/05/15 00:12:37;;;;;;;6.53;4.43;;;;;;;12.68;81.24;98262.84;4986931;28;102869;-70
2023/05/15 00:15:05;;;;;;;6.60;5.37;;;;;;;12.52;82.37;98262.50;4984839;28;103435;-67
2023/05/15 00:17:33;;;;;;;4.77;4.37;;;;;;;12.61;82.50;98267.00;4989741;28;107522;-67
2023/05/15 00:20:01;;;;;;;4.97;4.57;;;;;;;12.71;81.68;98265.22;4987241;28;102640;-68
2023/05/15 00:22:29;;;;;;;4.23;3.83;;;;;;;12.77;81.21;98273.47;4981396;28;102753;-69
2023/05/15 00:24:58;;;;;;;5.03;4.63;;;;;;;12.78;80.94;98263.69;4970722;28;104461;-69
2023/05/15 00:27:26;;;;;;;4.83;4.33;;;;;;;12.63;81.95;98265.06;4983629;28;108566;-68
2023/05/15 00:29:56;;;;;;;6.40;5.47;;;;;;;12.65;82.58;98263.13;4986024;28;103126;-68
2023/05/15 00:32:26;;;;;;;6.13;5.60;;;;;;;12.63;82.35;98260.56;4999411;28;102653;-69
2023/05/15 00:34:53;;;;;;;6.23;5.63;;;;;;;12.59;83.17;98268.94;5000174;28;103256;-69
2023/05/15 00:37:22;;;;;;;6.50;5.90;;;;;;;12.71;82.79;98274.03;5013872;28;103075;-69
2023/05/15 00:39:50;;;;;;;5.13;4.63;;;;;;;12.83;81.55;98266.78;4994060;28;102641;-69
2023/05/15 00:42:19;;;;;;;5.70;5.20;;;;;;;12.89;81.46;98271.53;4993682;28;102975;-68
2023/05/15 00:44:48;;;;;;;5.17;4.77;;;;;;;12.98;80.77;98265.44;5003399;28;103232;-69
2023/05/15 00:47:20;;;;;;;4.30;3.90;;;;;;;12.96;80.80;98259.44;4968541;28;104546;-69
2023/05/15 00:49:49;;;;;;;6.50;5.43;;;;;;;12.95;81.24;98271.00;4996813;28;102784;-68
2023/05/15 00:52:20;;;;;;;4.67;4.27;;;;;;;13.01;81.40;98259.88;5003191;28;102660;-69
2023/05/15 00:54:48;;;;;;;5.47;4.67;;;;;;;13.02;81.39;98266.84;5002445;28;103570;-69
2023/05/15 00:57:18;;;;;;;5.37;4.63;;;;;;;13.00;81.53;98263.47;4987372;28;103826;-68
2023/05/15 00:59:46;;;;;;;5.53;5.03;;;;;;;12.98;81.67;98256.63;4992323;28;102684;-69
2023/05/15 01:02:17;;;;;;;5.90;5.30;;;;;;;12.94;82.13;98258.72;4984857;28;102723;-67
2023/05/15 01:04:46;;;;;;;6.40;5.00;;;;;;;12.95;81.93;98255.09;4983829;28;105104;-68
2023/05/15 01:07:14;;;;;;;5.50;5.00;;;;;;;12.91;81.94;98258.19;4999271;28;103192;-69
2023/05/15 01:09:43;;;;;;;5.17;4.67;;;;;;;12.90;82.05;98262.63;4990612;28;103184;-69
2023/05/15 01:12:14;;;;;;;5.93;5.13;;;;;;;12.93;81.29;98265.00;4973305;28;102790;-68
2023/05/15 01:14:42;;;;;;;4.90;4.50;;;;;;;12.94;81.68;98265.84;4984050;28;103288;-68
2023/05/15 01:17:10;;;;;;;6.00;5.17;;;;;;;12.90;81.23;98275.88;4984429;28;103890;-68
2023/05/15 01:19:39;;;;;;;5.60;5.10;;;;;;;12.50;83.69;98269.72;4987854;28;105362;-69
2023/05/15 01:22:34;;;;;;;6.30;5.13;;;;;;;12.39;85.03;98269.81;5002378;28;102685;-69
2023/05/15 01:25:37;;;;;;;5.50;5.00;;;;;;;12.68;84.33;98270.78;4983843;28;105433;-69
2023/05/15 01:28:11;;;;;;;6.00;5.40;;;;;;;12.45;83.57;98266.66;4963451;28;103341;-68
2023/05/15 01:30:43;;;;;;;5.67;5.17;;;;;;;12.25;85.87;98270.16;4986523;28;102673;-69
2023/05/15 01:33:17;;;;;;;5.30;4.80;;;;;;;12.34;85.61;98269.38;4988162;28;103734;-69
2023/05/15 01:35:55;;;;;;;4.83;4.37;;;;;;;12.60;84.58;98267.97;4993225;28;103184;-69
2023/05/15 01:38:30;;;;;;;6.47;4.87;;;;;;;12.60;84.15;98265.34;4991750;28;102786;-69
2023/05/15 01:41:03;;;;;;;5.37;4.87;;;;;;;12.50;84.33;98272.38;4992391;28;102777;-70
2023/05/15 01:43:35;;;;;;;4.93;4.20;;;;;;;12.66;83.97;98272.72;4988810;28;102696;-68
2023/05/15 01:46:04;;;;;;;6.77;6.00;;;;;;;12.14;86.51;98269.28;4989437;28;103864;-68
2023/05/15 01:48:35;;;;;;;5.87;4.80;;;;;;;12.23;86.78;98269.47;5002543;28;103303;-68
2023/05/15 01:51:06;;;;;;;6.70;4.63;;;;;;;12.48;85.25;98266.38;4994324;28;102576;-68
2023/05/15 01:53:37;;;;;;;5.83;5.27;;;;;;;12.48;85.70;98269.03;4987920;28;102631;-69
2023/05/15 01:56:08;;;;;;;5.80;4.27;;;;;;;12.55;84.90;98267.50;4996867;28;105077;-69
2023/05/15 01:58:39;;;;;;;4.60;4.20;;;;;;;12.69;83.82;98269.81;4995944;28;114481;-69
2023/05/15 02:01:09;;;;;;;4.63;4.23;;;;;;;12.74;83.24;98267.63;4980183;28;102688;-69
2023/05/15 02:03:37;;;;;;;4.70;4.30;;;;;;;12.78;83.26;98264.53;4997602;28;103407;-69
2023/05/15 02:06:06;;;;;;;4.40;4.00;;;;;;;12.70;83.36;98259.09;4975240;28;106931;-69
2023/05/15 02:08:35;;;;;;;5.27;4.63;;;;;;;12.58;83.54;98264.59;4992349;28;106004;-69
2023/05/15 02:11:03;;;;;;;4.93;4.40;;;;;;;12.60;83.64;98267.97;4987619;28;102937;-69
2023/05/15 02:13:35;;;;;;;5.27;4.77;;;;;;;12.55;83.75;98267.50;4973491;28;102884;-70
2023/05/15 02:16:04;;;;;;;5.07;3.83;;;;;;;12.53;84.23;98267.66;4983473;28;104180;-69
2023/05/15 02:18:32;;;;;;;4.60;4.20;;;;;;;12.63;83.55;98265.06;4992569;28;110111;-69
2023/05/15 02:21:01;;;;;;;5.40;4.90;;;;;;;12.57;83.24;98269.09;4987502;28;103259;-69
2023/05/15 02:23:29;;;;;;;5.90;5.40;;;;;;;12.61;82.38;98272.28;4993003;28;102788;-68
2023/05/15 02:26:12;;;;;;;6.73;5.23;;;;;;;12.57;82.90;98273.53;4979177;28;112348;-68
2023/05/15 02:28:54;;;;;;;4.93;4.07;;;;;;;12.48;83.73;98272.53;4982779;28;106017;-68
2023/05/15 02:31:35;;;;;;;5.03;4.63;;;;;;;12.44;83.47;98272.91;4981598;28;102645;-69
2023/05/15 02:34:12;;;;;;;6.53;5.30;;;;;;;12.28;83.79;98275.22;4990868;28;102809;-69
2023/05/15 02:36:42;;;;;;;4.37;3.97;;;;;;;12.35;84.93;98273.72;4984593;28;104276;-69
2023/05/15 02:39:11;;;;;;;4.93;4.43;;;;;;;12.46;84.39;98268.34;5001995;28;103150;-69
2023/05/15 02:41:41;;;;;;;6.63;5.23;;;;;;;12.45;84.28;98269.28;4990351;28;102967;-69
2023/05/15 02:44:11;;;;;;;5.40;4.90;;;;;;;12.56;84.65;98269.19;4994393;28;102695;-69
2023/05/15 02:46:41;;;;;;;5.30;4.80;;;;;;;12.61;84.07;98273.13;4982200;28;103006;-68
2023/05/15 02:49:11;;;;;;;6.63;5.50;;;;;;;12.51;84.22;98266.13;4986493;28;103261;-69
2023/05/15 02:51:40;;;;;;;6.00;5.50;;;;;;;12.53;85.07;98266.81;4982422;28;103012;-69
2023/05/15 02:54:08;;;;;;;5.53;5.03;;;;;;;12.59;84.21;98268.94;4986840;28;102871;-68
2023/05/15 02:56:36;;;;;;;4.90;4.50;;;;;;;12.58;84.22;98269.91;4982482;28;103344;-69
2023/05/15 02:59:04;;;;;;;4.93;4.47;;;;;;;12.61;84.49;98267.00;4987924;28;103234;-69
2023/05/15 03:01:32;;;;;;;4.73;4.33;;;;;;;12.77;83.63;98268.16;4985720;28;102691;-68
2023/05/15 03:04:01;;;;;;;6.30;5.53;;;;;;;12.69;83.61;98264.50;4982205;28;102629;-69
2023/05/15 03:06:31;;;;;;;4.27;3.87;;;;;;;12.87;83.31;98268.19;4995118;28;103324;-68
2023/05/15 03:08:59;;;;;;;4.30;3.90;;;;;;;12.94;82.67;98271.97;4996827;28;103161;-69
2023/05/15 03:11:27;;;;;;;5.57;5.03;;;;;;;12.88;82.61;98269.03;4985733;28;104917;-69
2023/05/15 03:13:55;;;;;;;4.97;4.57;;;;;;;12.69;84.31;98270.66;4989975;28;103047;-69
2023/05/15 03:16:22;;;;;;;5.93;4.80;;;;;;;12.77;84.37;98262.03;4981365;28;111212;-74
2023/05/15 03:18:50;;;;;;;4.67;4.27;;;;;;;12.80;83.54;98261.75;4987551;28;102808;-70
2023/05/15 03:21:19;;;;;;;4.70;4.30;;;;;;;12.89;83.15;98260.09;4982354;28;102967;-70
2023/05/15 03:23:47;;;;;;;5.57;4.93;;;;;;;12.77;83.88;98262.03;4992309;28;102691;-70
2023/05/15 03:26:15;;;;;;;5.13;4.63;;;;;;;12.84;83.94;98254.38;4989750;28;103196;-70
2023/05/15 03:28:45;;;;;;;5.10;4.60;;;;;;;12.86;84.07;98255.06;4999347;28;102735;-70
2023/05/15 03:31:14;;;;;;;5.17;4.67;;;;;;;12.89;83.81;98260.94;4989379;28;103751;-70
2023/05/15 03:33:48;;;;;;;4.43;4.03;;;;;;;12.92;83.58;98260.69;4991644;28;102833;-70
2023/05/15 03:36:16;;;;;;;6.70;4.57;;;;;;;12.60;84.17;98267.97;4990181;28;103271;-70
2023/05/15 03:38:45;;;;;;;5.73;5.13;;;;;;;12.45;85.63;98261.34;4983648;28;103183;-71
2023/05/15 03:41:13;;;;;;;5.00;4.50;;;;;;;12.32;86.95;98264.25;4984051;28;102631;-71
2023/05/15 03:43:41;;;;;;;5.73;5.23;;;;;;;12.54;86.24;98265.84;4988836;28;102814;-70
2023/05/15 03:46:09;;;;;;;5.10;4.70;;;;;;;12.75;85.46;98261.31;4986374;28;103450;-70
2023/05/15 03:48:40;;;;;;;5.67;4.30;;;;;;;12.91;84.47;98264.31;4990011;28;111367;-70
2023/05/15 03:51:08;;;;;;;5.47;4.30;;;;;;;13.01;84.04;98261.66;4981783;28;102728;-70
2023/05/15 03:53:36;;;;;;;5.10;4.37;;;;;;;13.02;84.26;98250.09;4991117;28;103082;-70
2023/05/15 03:56:07;;;;;;;6.43;4.77;;;;;;;13.09;83.45;98254.75;4986792;28;103355;-70
2023/05/15 03:58:35;;;;;;;5.07;4.57;;;;;;;13.16;82.91;98260.34;4991770;28;103246;-70
2023/05/15 04:01:03;;;;;;;4.53;4.13;;;;;;;13.31;82.35;98257.13;4982855;28;102696;-70
2023/05/15 04:03:31;;;;;;;5.20;4.70;;;;;;;13.14;83.23;98252.50;4988796;28;102780;-71
2023/05/15 04:05:59;;;;;;;4.73;4.30;;;;;;;13.28;82.68;98265.38;4983439;28;103276;-70
2023/05/15 04:08:27;;;;;;;4.30;3.90;;;;;;;13.28;82.96;98262.72;4987324;28;103165;-70
2023/05/15 04:10:54;;;;;;;5.23;4.83;;;;;;;13.30;82.82;98258.09;4988091;28;104321;-70
2023/05/15 04:13:23;;;;;;;4.47;3.70;;;;;;;13.41;83.04;98261.63;4985190;28;102916;-70
2023/05/15 04:15:52;;;;;;;4.67;4.10;;;;;;;13.51;82.82;98262.44;4984820;28;105497;-71
2023/05/15 04:18:20;;;;;;;4.20;3.87;;;;;;;13.61;82.40;98268.63;4978260;28;104309;-70
2023/05/15 04:20:48;;;;;;;5.67;5.07;;;;;;;13.63;81.74;98256.03;4981133;28;102658;-70
2023/05/15 04:23:16;;;;;;;5.30;4.80;;;;;;;13.59;82.16;98268.75;4982710;28;103508;-70
2023/05/15 04:25:45;;;;;;;4.73;3.57;;;;;;;13.68;82.49;98261.75;4983760;28;111682;-69
2023/05/15 04:28:13;;;;;;;4.73;4.33;;;;;;;13.79;82.21;98258.94;4984233;28;103293;-70
2023/05/15 04:30:42;;;;;;;5.90;5.40;;;;;;;13.87;81.76;98267.03;4984882;28;102994;-71
2023/05/15 04:33:10;;;;;;;4.73;4.33;;;;;;;13.91;81.97;98260.47;4985601;28;102872;-70
2023/05/15 04:35:39;;;;;;;5.90;5.27;;;;;;;13.82;82.46;98261.31;4982125;28;103233;-70
2023/05/15 04:38:06;;;;;;;6.10;5.23;;;;;;;13.83;82.00;98263.00;4985214;28;112735;-71
2023/05/15 04:40:37;;;;;;;6.50;5.77;;;;;;;13.56;83.59;98262.91;4983659;28;102599;-70
2023/05/15 04:43:07;;;;;;;6.17;5.67;;;;;;;13.49;84.95;98264.41;4978553;28;102911;-69
2023/05/15 04:45:35;;;;;;;6.20;5.60;;;;;;;13.76;83.80;98261.88;4981986;28;114244;-69
2023/05/15 04:48:05;;;;;;;5.97;5.47;;;;;;;13.86;83.25;98262.72;4985601;28;106862;-68
2023/05/15 04:50:33;;;;;;;5.90;5.40;;;;;;;13.63;84.62;98259.53;4979020;28;104032;-68
2023/05/15 04:53:01;;;;;;;6.10;5.60;;;;;;;13.97;82.69;98267.03;4981094;28;102887;-69
2023/05/15 04:55:29;;;;;;;5.53;5.03;;;;;;;13.81;84.21;98254.34;4985198;28;103419;-69
2023/05/15 04:57:58;;;;;;;6.10;5.60;;;;;;;14.07;83.06;98258.06;4988018;28;103413;-69
2023/05/15 05:00:26;;;;;;;5.97;5.37;;;;;;;14.35;81.45;98265.16;4981818;28;106433;-69
2023/05/15 05:02:54;;;;;;;5.60;5.03;;;;;;;14.08;83.09;98264.22;4988083;28;102827;-68
2023/05/15 05:05:26;;;;;;;6.13;5.00;;;;;;;14.23;82.22;98258.31;4982918;28;103262;-68
2023/05/15 05:07:54;;;;;;;6.43;5.83;;;;;;;14.31;81.62;98263.75;4985032;28;105727;-68
2023/05/15 05:10:21;;;;;;;6.23;5.27;;;;;;;14.44;81.45;98268.78;4987985;28;102963;-68
2023/05/15 05:12:49;;;;;;;6.57;6.03;;;;;;;14.58;81.11;98265.63;4982305;28;103589;-69
2023/05/15 05:15:17;;;;;;;5.63;5.13;;;;;;;14.70;80.49;98274.28;4982131;28;103334;-69
2023/05/15 05:17:45;;;;;;;5.67;5.10;;;;;;;14.89;80.14;98271.50;4988557;28;103118;-69
2023/05/15 05:20:13;;;;;;;6.20;5.60;;;;;;;14.80;80.40;98267.06;4983301;28;102589;-69
2023/05/15 05:22:45;;;;;;;6.20;5.70;;;;;;;14.69;80.40;98278.75;4980872;28;103011;-68
2023/05/15 05:25:13;;;;;;;6.53;5.93;;;;;;;14.69;81.17;98278.75;4982371;28;107075;-69
2023/05/15 05:27:40;;;;;;;6.27;5.67;;;;;;;14.97;79.90;98275.09;4977950;28;111283;-69
2023/05/15 05:30:09;;;;;;;6.77;5.77;;;;;;;14.69;79.86;98278.75;4997290;28;102726;-68
2023/05/15 05:32:38;;;;;;;5.90;5.30;;;;;;;14.96;79.66;98269.94;4986580;28;102714;-69
2023/05/15 05:35:06;;;;;;;5.47;4.93;;;;;;;14.98;79.69;98274.13;4987405;28;103333;-69
2023/05/15 05:37:34;;;;;;;7.57;6.53;;;;;;;15.08;78.91;98282.03;4982769;28;103125;-70
2023/05/15 05:40:05;;;;;;;5.43;4.97;;;;;;;15.05;78.90;98275.19;4962776;28;102823;-69
2023/05/15 05:42:33;;;;;;;7.07;6.47;;;;;;;14.99;78.10;98280.25;4982454;28;102758;-69
2023/05/15 05:45:03;;;;;;;6.57;5.80;;;;;;;14.94;78.94;98277.22;4985383;28;103504;-69
2023/05/15 05:47:31;;;;;;;7.00;5.93;;;;;;;15.23;78.04;98272.56;4981751;28;109938;-69
2023/05/15 05:49:59;;;;;;;6.80;6.20;;;;;;;15.44;77.55;98273.13;4984078;28;103149;-69
2023/05/15 05:52:28;;;;;;;5.63;5.13;;;;;;;15.54;77.53;98271.28;4980719;28;102979;-69
2023/05/15 05:54:55;;;;;;;7.63;6.83;;;;;;;15.44;76.64;98274.94;4980082;28;103371;-70
2023/05/15 05:57:25;;;;;;;6.57;5.87;;;;;;;15.60;76.74;98276.00;4979686;28;103205;-69
2023/05/15 05:59:53;;;;;;;7.73;6.47;;;;;;;15.64;76.04;98272.03;4991869;28;103200;-70
2023/05/15 06:02:20;;;;;;;6.80;6.10;;;;;;;15.53;76.53;98271.41;4991269;28;102796;-69
2023/05/15 06:04:48;;;;;;;7.10;6.40;;;;;;;15.54;76.07;98281.06;4985553;28;114133;-69
2023/05/15 06:07:19;;;;;;;8.13;6.83;;;;;;;15.51;76.13;98276.91;4988642;28;104349;-69
2023/05/15 06:09:47;;;;;;;6.57;5.97;;;;;;;15.48;76.63;98273.69;5000876;28;102758;-69
2023/05/15 06:12:15;;;;;;;6.70;6.00;;;;;;;15.49;76.60;98278.88;4984361;28;103864;-70
2023/05/15 06:14:45;;;;;;;7.37;6.50;;;;;;;15.30;76.45;98278.16;4990891;28;107168;-69
2023/05/15 06:17:12;;;;;;;6.53;5.90;;;;;;;15.60;76.71;98283.97;4984042;28;111901;-69
2023/05/15 06:19:40;;;;;;;6.87;6.23;;;;;;;15.74;75.77;98277.28;4986600;28;102566;-69
2023/05/15 06:22:08;;;;;;;6.53;5.90;;;;;;;16.05;75.18;98280.34;4996840;28;102631;-69
2023/05/15 06:24:36;;;;;;;6.73;6.13;;;;;;;15.61;77.47;98280.31;4984121;28;103238;-70
2023/05/15 06:27:04;;;;;;;6.57;5.97;;;;;;;15.35;77.31;98275.88;4983346;28;103150;-69
2023/05/15 06:29:34;;;;;;;6.47;5.97;;;;;;;15.78;75.72;98272.44;4992260;28;103946;-69
2023/05/15 06:32:04;;;;;;;7.07;6.00;;;;;;;15.74;75.69;98282.59;4985802;28;102750;-69
2023/05/15 06:34:32;;;;;;;7.13;6.03;;;;;;;15.59;74.90;98284.97;4985885;28;103142;-69
2023/05/15 06:37:00;;;;;;;6.27;5.67;;;;;;;15.74;75.80;98282.59;4994113;28;103658;-69
2023/05/15 06:39:30;;;;;;;5.43;4.93;;;;;;;15.86;75.12;98275.22;4995335;28;103943;-69
2023/05/15 06:42:00;;;;;;;5.50;5.00;;;;;;;16.13;75.21;98278.59;4983010;28;104417;-69
2023/05/15 06:44:30;;;;;;;5.80;4.97;;;;;;;16.39;74.48;98283.94;4983777;28;108950;-68
2023/05/15 06:46:58;;;;;;;6.13;5.30;;;;;;;16.79;72.10;98291.34;4989209;28;106159;-69
2023/05/15 06:49:28;;;;;;;5.93;5.33;;;;;;;17.05;71.60;98283.28;4983817;28;102559;-69
2023/05/15 06:51:55;;;;;;;5.53;5.03;;;;;;;17.05;71.29;98280.59;4986296;28;104085;-69
2023/05/15 06:54:23;;;;;;;5.83;5.23;;;;;;;16.87;70.96;98282.56;4987611;28;103361;-69
2023/05/15 06:56:51;;;;;;;4.70;4.30;;;;;;;17.15;70.84;98281.34;4985345;28;105896;-69
2023/05/15 06:59:19;;;;;;;7.30;5.10;;;;;;;16.56;72.04;98283.03;4983889;28;102622;-69
2023/05/15 07:01:47;;;;;;;5.83;5.40;;;;;;;16.37;73.38;98283.22;4981790;28;102648;-69
2023/05/15 07:04:17;;;;;;;6.00;5.40;;;;;;;16.67;71.17;98280.09;4986718;28;103450;-69
2023/05/15 07:06:46;;;;;;;6.80;6.07;;;;;;;16.54;70.39;98282.38;4994931;28;110439;-69
2023/05/15 07:09:13;;;;;;;5.80;5.07;;;;;;;16.64;71.03;98280.44;4983040;28;102553;-69
2023/05/15 07:11:44;;;;;;;4.35;3.95;;;;;;;17.21;69.87;98278.81;4983344;28;103197;-69
2023/05/15 07:14:11;;;;;;;4.30;4.00;;;;;;;17.34;68.71;98275.72;5000878;28;103332;-69
2023/05/15 07:16:39;;;;;;;5.70;5.07;;;;;;;16.93;68.57;98281.88;4996084;28;103029;-69
2023/05/15 07:19:08;;;;;;;6.22;5.65;;;;;;;16.41;71.95;98284.59;4989632;28;102604;-69
2023/05/15 07:21:36;;;;;;;5.57;5.07;;;;;;;16.54;70.59;98285.03;4986436;28;103784;-69
2023/05/15 07:24:06;;;;;;;5.33;4.40;;;;;;;16.58;70.60;98281.06;4985575;28;104440;-70
2023/05/15 07:26:33;;;;;;;5.40;5.00;;;;;;;17.09;69.65;98292.66;4990970;28;103166;-69
2023/05/15 07:29:13;;;;;;;8.27;5.37;;;;;;;16.91;70.23;98283.88;4990451;28;103029;-69
2023/05/15 07:31:44;;;;;;;5.63;5.03;;;;;;;17.08;69.28;98290.97;4995948;28;102903;-69
2023/05/15 07:34:12;;;;;;;5.60;4.65;;;;;;;17.48;68.06;98282.25;4979536;28;106008;-69
2023/05/15 07:36:39;;;;;;;4.80;4.15;;;;;;;17.70;67.42;98287.81;4994248;28;115335;-69
2023/05/15 07:39:09;;;;;;;6.78;4.70;;;;;;;17.69;67.71;98283.47;4987260;28;102708;-69
2023/05/15 07:41:36;;;;;;;5.22;4.72;;;;;;;17.95;67.66;98281.50;4986525;28;104321;-69
2023/05/15 07:44:04;;;;;;;4.57;4.18;;;;;;;18.66;65.51;98285.25;4986728;28;103972;-69
2023/05/15 07:46:32;;;;;;;4.55;4.15;;;;;;;18.83;64.72;98282.38;5004185;28;103044;-69
2023/05/15 07:49:00;;;;;;;4.53;4.15;;;;;;;18.56;65.55;98289.94;4986692;28;102649;-70
2023/05/15 07:51:29;;;;;;;5.30;4.82;;;;;;;18.39;63.28;98291.78;4983536;28;102969;-69
2023/05/15 07:53:56;;;;;;;5.43;3.72;;;;;;;19.22;62.67;98286.88;4982511;28;103329;-69
2023/05/15 07:56:26;;;;;;;4.20;3.80;;;;;;;18.73;62.26;98289.75;4992271;28;103144;-69
2023/05/15 07:58:53;;;;;;;6.03;4.25;;;;;;;18.62;61.49;98284.75;4984526;28;104380;-70
2023/05/15 08:01:21;;;;;;;6.03;3.92;;;;;;;18.76;62.20;98285.91;4982890;28;102985;-69
2023/05/15 08:03:49;;;;;;;4.28;3.88;;;;;;;18.23;62.83;98287.31;4985598;28;105762;-69
2023/05/15 08:06:17;;;;;;;5.20;4.10;;;;;;;18.73;62.97;98292.44;4988236;28;112427;-70
2023/05/15 08:08:45;;;;;;;5.95;3.78;;;;;;;18.87;62.24;98286.38;4996947;28;102613;-69
2023/05/15 08:11:13;;;;;;;3.60;3.30;;;;;;;19.57;61.65;98281.00;4983657;28;102694;-70
2023/05/15 08:13:42;;;;;;;4.18;3.85;;;;;;;19.96;58.75;98276.38;4989751;28;108693;-70
2023/05/15 08:16:10;;;;;;;4.80;3.65;;;;;;;19.81;60.30;98269.31;4982000;28;105682;-69
2023/05/15 08:18:38;;;;;;;3.80;3.50;;;;;;;19.61;57.74;98266.25;4984067;28;103005;-69
2023/05/15 08:21:06;;;;;;;3.80;3.30;;;;;;;19.31;60.11;98270.59;4998547;28;102816;-70
2023/05/15 08:23:34;;;;;;;3.65;3.35;;;;;;;19.10;61.03;98270.38;4986127;28;103209;-70
2023/05/15 08:26:02;;;;;;;4.90;3.97;;;;;;;20.82;55.35;98265.16;4994138;28;103331;-69
2023/05/15 08:28:30;;;;;;;3.83;3.10;;;;;;;21.59;53.89;98260.97;4980453;28;102513;-70
2023/05/15 08:30:59;;;;;;;3.88;3.13;;;;;;;21.51;54.23;98260.25;4986331;28;102735;-69
2023/05/15 08:33:29;;;;;;;3.00;2.80;;;;;;;20.75;54.78;98272.28;4983815;28;103215;-70
2023/05/15 08:35:57;;;;;;;3.88;2.97;;;;;;;20.65;53.43;98258.31;4983627;28;103120;-69
2023/05/15 08:38:25;;;;;;;3.20;2.90;;;;;;;21.01;54.68;98251.16;4992666;28;102714;-69
2023/05/15 08:40:57;;;;;;;3.08;2.88;;;;;;;20.82;54.65;98259.81;4982317;28;103269;-69
2023/05/15 08:43:30;;;;;;;2.88;2.67;;;;;;;22.25;54.75;98257.06;4992044;28;103265;-69
2023/05/15 08:46:00;;;;;;;3.92;3.63;;;;;;;22.14;52.89;98260.31;4986285;28;103027;-69
2023/05/15 08:48:29;;;;;;;4.43;3.47;;;;;;;21.82;51.16;98255.41;4981196;28;102597;-69
2023/05/15 08:51:00;;;;;;;3.97;3.30;;;;;;;22.32;50.95;98251.72;4978396;28;102728;-69
2023/05/15 08:53:29;;;;;;;3.47;3.17;;;;;;;21.81;54.98;98251.06;4995680;28;103295;-69
2023/05/15 08:55:57;;;;;;;4.35;3.33;;;;;;;22.83;51.96;98249.59;4982040;28;103183;-69
2023/05/15 08:58:27;;;;;;;3.38;3.05;;;;;;;22.72;50.05;98255.56;4986042;28;103697;-69
2023/05/15 09:00:56;;;;;;;3.35;3.08;;;;;;;21.99;51.55;98240.72;4985267;28;103575;-69
2023/05/15 09:03:26;;;;;;;3.40;3.10;;;;;;;21.50;51.63;98245.16;4983507;28;105789;-69
2023/05/15 09:05:55;;;;;;;3.13;2.92;;;;;;;21.22;52.93;98253.94;4984227;28;107161;-69
2023/05/15 09:08:24;;;;;;;5.05;3.65;;;;;;;21.86;54.16;98235.19;4986416;28;102623;-69
2023/05/15 09:10:55;;;;;;;3.28;3.08;;;;;;;21.17;55.03;98242.94;4984028;28;103503;-69
2023/05/15 09:13:22;;;;;;;3.70;3.40;;;;;;;21.39;52.74;98231.19;4980362;28;105838;-69
2023/05/15 09:15:51;;;;;;;4.63;3.20;;;;;;;21.12;53.95;98237.28;4991419;28;105690;-69
2023/05/15 09:18:22;;;;;;;5.10;2.88;;;;;;;20.73;55.81;98236.75;4982862;28;102711;-68
2023/05/15 09:20:51;;;;;;;3.40;3.10;;;;;;;21.83;53.36;98227.50;4990477;28;102646;-69
2023/05/15 09:23:24;;;;;;;3.15;2.90;;;;;;;22.78;50.87;98231.38;4985156;28;109490;-69
2023/05/15 09:25:55;;;;;;;5.82;3.67;;;;;;;22.34;50.40;98225.47;4981711;28;105764;-69
2023/05/15 09:28:29;;;;;;;3.67;3.20;;;;;;;21.12;53.82;98231.09;4997496;28;102892;-69
2023/05/15 09:30:59;;;;;;;3.88;3.58;;;;;;;22.11;51.68;98228.41;4992376;28;102670;-69
2023/05/15 09:33:29;;;;;;;3.53;3.25;;;;;;;21.39;52.86;98223.13;5001182;28;103714;-69
2023/05/15 09:35:58;;;;;;;3.80;3.33;;;;;;;22.58;50.56;98224.16;4973177;28;105646;-69
2023/05/15 09:38:26;;;;;;;3.85;3.55;;;;;;;21.38;53.77;98218.81;4995701;28;103165;-67
2023/05/15 09:41:05;;;;;;;3.47;3.17;;;;;;;22.60;51.39;98217.56;4986817;28;103373;-68
2023/05/15 09:43:37;;;;;;;3.17;2.97;;;;;;;21.57;51.44;98225.41;4990061;28;103477;-68
2023/05/15 09:46:07;;;;;;;3.25;2.92;;;;;;;22.89;49.61;98216.50;4993956;28;103295;-67
2023/05/15 09:48:35;;;;;;;3.08;2.80;;;;;;;22.59;49.89;98223.16;4995385;28;102667;-65
2023/05/15 09:51:06;;;;;;;4.53;3.65;;;;;;;21.61;51.39;98231.22;4985288;28;105197;-67
2023/05/15 09:53:37;;;;;;;4.05;3.65;;;;;;;21.23;51.89;98215.31;4987402;28;102686;-68
2023/05/15 09:56:05;;;;;;;5.30;3.03;;;;;;;22.85;50.00;98215.25;4982489;28;103206;-67
2023/05/15 09:58:35;;;;;;;4.07;3.35;;;;;;;23.22;50.15;98206.69;4988373;28;102612;-68
2023/05/15 10:01:11;;;;;;;3.20;3.00;;;;;;;23.17;49.68;98211.84;4991800;28;102600;-68
2023/05/15 10:03:42;;;;;;;4.72;3.67;;;;;;;23.10;49.97;98211.00;4986339;28;103177;-67
2023/05/15 10:06:18;;;;;;;3.75;3.40;;;;;;;22.33;50.87;98216.56;4990735;28;103444;-67
2023/05/15 10:08:51;;;;;;;4.07;3.40;;;;;;;22.05;50.99;98215.72;4982392;28;102806;-67
2023/05/15 10:11:19;;;;;;;4.03;3.30;;;;;;;21.21;51.40;98211.16;4985897;28;103034;-67
2023/05/15 10:13:48;;;;;;;4.10;3.20;;;;;;;21.83;51.76;98204.16;4986427;28;103305;-68
2023/05/15 10:16:19;;;;;;;3.53;3.22;;;;;;;22.07;51.86;98200.22;4991051;28;103146;-67
2023/05/15 10:18:48;;;;;;;3.08;2.88;;;;;;;22.55;50.12;98190.41;4982380;28;102675;-67
2023/05/15 10:21:20;;;;;;;3.40;3.20;;;;;;;21.87;50.42;98197.38;4980906;28;103108;-67
2023/05/15 10:23:50;;;;;;;3.92;3.05;;;;;;;22.11;48.92;98190.75;4995151;28;103351;-67
2023/05/15 10:26:23;;;;;;;3.88;3.30;;;;;;;21.62;48.99;98189.88;4987061;28;105624;-67
2023/05/15 10:28:52;;;;;;;2.80;2.60;;;;;;;23.43;47.02;98179.63;4984139;28;102650;-68
2023/05/15 10:31:21;;;;;;;2.85;2.28;;;;;;;23.17;44.70;98174.13;4991326;28;104138;-68
2023/05/15 10:33:51;;;;;;;2.60;2.40;;;;;;;23.92;43.60;98176.53;4986887;28;103345;-68
2023/05/15 10:36:21;;;;;;;2.60;2.40;;;;;;;23.85;45.58;98169.50;4995393;28;103142;-68
2023/05/15 10:38:50;;;;;;;3.17;2.40;;;;;;;21.71;46.53;98161.84;4986262;28;102950;-67
2023/05/15 10:41:21;;;;;;;2.50;2.30;;;;;;;22.60;43.83;98162.91;4983933;28;103364;-67
2023/05/15 10:43:49;;;;;;;2.78;2.58;;;;;;;22.17;45.14;98168.44;4986729;28;111384;-67
2023/05/15 10:46:17;;;;;;;3.28;2.88;;;;;;;21.47;46.37;98167.63;4997685;28;103268;-68
2023/05/15 10:48:47;;;;;;;2.58;2.38;;;;;;;22.98;44.15;98148.81;4991009;28;102589;-68
2023/05/15 10:51:17;;;;;;;2.83;2.30;;;;;;;22.37;44.92;98150.53;4988016;28;102877;-67
2023/05/15 10:53:46;;;;;;;2.03;1.83;;;;;;;22.95;46.18;98145.69;4985270;28;102626;-67
2023/05/15 10:56:16;;;;;;;2.97;2.78;;;;;;;23.68;44.74;98139.41;4996671;28;103150;-67
2023/05/15 10:58:46;;;;;;;2.90;2.70;;;;;;;21.79;45.35;98143.72;4989755;28;102654;-68
2023/05/15 11:01:36;;;;;;;2.65;2.45;;;;;;;22.58;45.02;98146.94;4988738;28;103228;-68
2023/05/15 11:04:06;;;;;;;2.83;2.55;;;;;;;21.86;47.22;98149.16;4988528;28;103522;-67
2023/05/15 11:06:35;;;;;;;4.30;2.80;;;;;;;21.52;48.87;98149.91;4983681;28;103175;-67
2023/05/15 11:09:39;;;;;;;4.40;2.70;;;;;;;22.85;46.37;98139.84;4985757;28;103086;-67
2023/05/15 11:12:08;;;;;;;4.38;2.45;;;;;;;22.77;44.81;98140.84;4990350;28;102658;-68
2023/05/15 11:14:38;;;;;;;2.90;2.58;;;;;;;24.21;41.25;98140.25;4991254;28;104562;-67
2023/05/15 11:17:08;;;;;;;2.88;2.60;;;;;;;23.59;42.86;98133.41;4993814;28;103485;-67
2023/05/15 11:19:56;;;;;;;2.70;2.50;;;;;;;22.09;44.11;98147.06;4982439;28;102610;-68
2023/05/15 11:22:30;;;;;;;2.63;2.42;;;;;;;21.67;46.14;98139.06;4984388;28;102692;-67
2023/05/15 11:25:02;;;;;;;2.90;2.15;;;;;;;22.21;47.01;98129.34;4997718;28;103332;-67
2023/05/15 11:27:31;;;;;;;3.35;2.75;;;;;;;22.80;44.73;98132.34;4986325;28;112421;-70
2023/05/15 11:30:16;;;;;;;2.83;2.63;;;;;;;22.33;45.10;98124.25;4984654;28;102703;-70
2023/05/15 11:32:54;;;;;;;3.13;2.60;;;;;;;22.67;45.50;98126.94;4985892;28;103275;-70
2023/05/15 11:35:26;;;;;;;2.90;2.70;;;;;;;21.31;47.15;98126.53;4983899;28;103304;-68